Terminal Aerodrome Forecast
Issued by NWS Twin Cities, MN

Home | Current Version | Previous Version | Graphics & Text | Print | Product List | Glossary On
Versions: 1 2 3 4 5 6 7 8 9 10 11 12 13 14 15 16 17 18 19 20 21
000
FTUS43 KMPX 270153 AAA
TAFEAU
TAF AMD
KEAU 270153Z 2702/2724 VRB03KT P6SM OVC012
     FM270600 VRB03KT 5SM BR OVC007
     FM271500 02006KT P6SM OVC015
     FM272200 03006KT P6SM OVC025=

USA.gov is the U.S. government's official web portal to all federal, state and local government web resources and services.